sensor_id;sensor_type;location;lat;lon;timestamp;temperature;humidity
22968;DHT22;11650;48.106;-1.696;2022-09-09T00:07:43;15.70;99.90
22968;DHT22;11650;48.106;-1.696;2022-09-09T00:09:59;15.70;99.90
22968;DHT22;11650;48.106;-1.696;2022-09-09T00:16:11;15.70;99.90
22968;DHT22;11650;48.106;-1.696;2022-09-09T00:18:27;15.60;99.90
22968;DHT22;11650;48.106;-1.696;2022-09-09T00:21:14;15.60;99.90
22968;DHT22;11650;48.106;-1.696;2022-09-09T00:23:51;15.60;99.90
22968;DHT22;11650;48.106;-1.696;2022-09-09T00:31:31;15.60;99.90
22968;DHT22;11650;48.106;-1.696;2022-09-09T00:34:03;15.60;99.90
22968;DHT22;11650;48.106;-1.696;2022-09-09T00:36:31;15.60;99.90
22968;DHT22;11650;48.106;-1.696;2022-09-09T00:39:01;15.60;99.90
22968;DHT22;11650;48.106;-1.696;2022-09-09T00:41:52;15.60;99.90
22968;DHT22;11650;48.106;-1.696;2022-09-09T00:44:35;15.60;99.90
22968;DHT22;11650;48.106;-1.696;2022-09-09T00:50:05;15.50;99.90
22968;DHT22;11650;48.106;-1.696;2022-09-09T00:58:07;15.50;99.90
22968;DHT22;11650;48.106;-1.696;2022-09-09T01:11:26;15.40;99.90
22968;DHT22;11650;48.106;-1.696;2022-09-09T01:16:59;15.50;99.90
22968;DHT22;11650;48.106;-1.696;2022-09-09T01:27:47;15.40;99.90
22968;DHT22;11650;48.106;-1.696;2022-09-09T01:30:16;15.40;99.90
22968;DHT22;11650;48.106;-1.696;2022-09-09T01:32:51;15.40;99.90
22968;DHT22;11650;48.106;-1.696;2022-09-09T01:38:03;15.30;99.90
22968;DHT22;11650;48.106;-1.696;2022-09-09T01:40:28;15.30;99.90
22968;DHT22;11650;48.106;-1.696;2022-09-09T01:42:54;15.20;99.90
22968;DHT22;11650;48.106;-1.696;2022-09-09T01:45:21;15.20;99.90
22968;DHT22;11650;48.106;-1.696;2022-09-09T01:47:47;15.20;99.90
22968;DHT22;11650;48.106;-1.696;2022-09-09T01:50:15;15.20;99.90
22968;DHT22;11650;48.106;-1.696;2022-09-09T01:52:42;15.20;99.90
22968;DHT22;11650;48.106;-1.696;2022-09-09T01:55:09;15.20;99.90
22968;DHT22;11650;48.106;-1.696;2022-09-09T01:57:44;15.10;99.90
22968;DHT22;11650;48.106;-1.696;2022-09-09T02:00:14;15.10;99.90
22968;DHT22;11650;48.106;-1.696;2022-09-09T02:05:34;15.10;99.90
22968;DHT22;11650;48.106;-1.696;2022-09-09T02:08:09;15.10;99.90
22968;DHT22;11650;48.106;-1.696;2022-09-09T02:10:46;15.20;99.90
22968;DHT22;11650;48.106;-1.696;2022-09-09T02:13:14;15.20;99.90
22968;DHT22;11650;48.106;-1.696;2022-09-09T02:15:59;15.20;99.90
22968;DHT22;11650;48.106;-1.696;2022-09-09T02:18:40;15.30;99.90
22968;DHT22;11650;48.106;-1.696;2022-09-09T02:21:11;15.30;99.90
22968;DHT22;11650;48.106;-1.696;2022-09-09T02:23:41;15.40;99.90
22968;DHT22;11650;48.106;-1.696;2022-09-09T02:26:10;15.40;99.90
22968;DHT22;11650;48.106;-1.696;2022-09-09T02:28:40;15.40;99.90
22968;DHT22;11650;48.106;-1.696;2022-09-09T02:31:07;15.50;99.90
22968;DHT22;11650;48.106;-1.696;2022-09-09T02:33:40;15.50;99.90
22968;DHT22;11650;48.106;-1.696;2022-09-09T02:36:08;15.50;99.90
22968;DHT22;11650;48.106;-1.696;2022-09-09T02:38:39;15.50;99.90
22968;DHT22;11650;48.106;-1.696;2022-09-09T02:41:06;15.60;99.90
22968;DHT22;11650;48.106;-1.696;2022-09-09T02:43:35;15.60;99.90
22968;DHT22;11650;48.106;-1.696;2022-09-09T02:46:08;15.60;99.90
22968;DHT22;11650;48.106;-1.696;2022-09-09T02:51:09;15.70;99.90
22968;DHT22;11650;48.106;-1.696;2022-09-09T02:53:58;15.70;99.90
22968;DHT22;11650;48.106;-1.696;2022-09-09T02:56:26;15.70;99.90
22968;DHT22;11650;48.106;-1.696;2022-09-09T02:58:54;15.70;99.90
22968;DHT22;11650;48.106;-1.696;2022-09-09T03:01:20;15.80;99.90
22968;DHT22;11650;48.106;-1.696;2022-09-09T03:03:46;15.70;99.90
22968;DHT22;11650;48.106;-1.696;2022-09-09T03:06:12;15.80;99.90
22968;DHT22;11650;48.106;-1.696;2022-09-09T03:08:38;15.80;99.90
22968;DHT22;11650;48.106;-1.696;2022-09-09T03:11:04;15.80;99.90
22968;DHT22;11650;48.106;-1.696;2022-09-09T03:13:30;15.80;99.90
22968;DHT22;11650;48.106;-1.696;2022-09-09T03:15:55;15.80;99.90
22968;DHT22;11650;48.106;-1.696;2022-09-09T03:18:21;15.80;99.90
22968;DHT22;11650;48.106;-1.696;2022-09-09T03:20:47;15.80;99.90
22968;DHT22;11650;48.106;-1.696;2022-09-09T03:23:16;15.80;99.90
22968;DHT22;11650;48.106;-1.696;2022-09-09T03:25:49;15.80;99.90
22968;DHT22;11650;48.106;-1.696;2022-09-09T03:28:16;15.80;99.90
22968;DHT22;11650;48.106;-1.696;2022-09-09T03:30:42;15.80;99.90
22968;DHT22;11650;48.106;-1.696;2022-09-09T03:33:08;15.70;99.90
22968;DHT22;11650;48.106;-1.696;2022-09-09T03:35:33;15.70;99.90
22968;DHT22;11650;48.106;-1.696;2022-09-09T03:37:59;15.70;99.90
22968;DHT22;11650;48.106;-1.696;2022-09-09T03:40:26;15.70;99.90
22968;DHT22;11650;48.106;-1.696;2022-09-09T03:42:52;15.70;99.90
22968;DHT22;11650;48.106;-1.696;2022-09-09T03:45:18;15.70;99.90
22968;DHT22;11650;48.106;-1.696;2022-09-09T03:47:43;15.60;99.90
22968;DHT22;11650;48.106;-1.696;2022-09-09T03:50:09;15.60;99.90
22968;DHT22;11650;48.106;-1.696;2022-09-09T03:52:37;15.60;99.90
22968;DHT22;11650;48.106;-1.696;2022-09-09T03:55:04;15.60;99.90
22968;DHT22;11650;48.106;-1.696;2022-09-09T03:57:30;15.60;99.90
22968;DHT22;11650;48.106;-1.696;2022-09-09T03:59:56;15.50;99.90
22968;DHT22;11650;48.106;-1.696;2022-09-09T04:02:21;15.50;99.90
22968;DHT22;11650;48.106;-1.696;2022-09-09T04:04:47;15.50;99.90
22968;DHT22;11650;48.106;-1.696;2022-09-09T04:07:13;15.50;99.90
22968;DHT22;11650;48.106;-1.696;2022-09-09T04:09:39;15.40;99.90
22968;DHT22;11650;48.106;-1.696;2022-09-09T04:12:04;15.40;99.90
22968;DHT22;11650;48.106;-1.696;2022-09-09T04:14:31;15.30;99.90
22968;DHT22;11650;48.106;-1.696;2022-09-09T04:16:57;15.30;99.90
22968;DHT22;11650;48.106;-1.696;2022-09-09T04:19:25;15.20;99.90
22968;DHT22;11650;48.106;-1.696;2022-09-09T04:21:50;15.20;99.90
22968;DHT22;11650;48.106;-1.696;2022-09-09T04:24:17;15.20;99.90
22968;DHT22;11650;48.106;-1.696;2022-09-09T04:26:43;15.20;99.90
22968;DHT22;11650;48.106;-1.696;2022-09-09T04:29:08;15.20;99.90
22968;DHT22;11650;48.106;-1.696;2022-09-09T04:31:34;15.20;99.90
22968;DHT22;11650;48.106;-1.696;2022-09-09T04:34:00;15.20;99.90
22968;DHT22;11650;48.106;-1.696;2022-09-09T04:36:31;15.20;99.90
22968;DHT22;11650;48.106;-1.696;2022-09-09T04:38:57;15.20;99.90
22968;DHT22;11650;48.106;-1.696;2022-09-09T04:41:23;15.20;99.90
22968;DHT22;11650;48.106;-1.696;2022-09-09T04:43:49;15.30;99.90
22968;DHT22;11650;48.106;-1.696;2022-09-09T04:46:15;15.20;99.90
22968;DHT22;11650;48.106;-1.696;2022-09-09T04:48:42;15.30;99.90
22968;DHT22;11650;48.106;-1.696;2022-09-09T04:51:11;15.30;99.90
22968;DHT22;11650;48.106;-1.696;2022-09-09T04:53:37;15.30;99.90
22968;DHT22;11650;48.106;-1.696;2022-09-09T04:56:15;15.30;99.90
22968;DHT22;11650;48.106;-1.696;2022-09-09T04:58:41;15.30;99.90
22968;DHT22;11650;48.106;-1.696;2022-09-09T05:01:20;15.20;99.90
22968;DHT22;11650;48.106;-1.696;2022-09-09T05:03:47;15.20;99.90
22968;DHT22;11650;48.106;-1.696;2022-09-09T05:06:18;15.20;99.90
22968;DHT22;11650;48.106;-1.696;2022-09-09T05:08:44;15.20;99.90
22968;DHT22;11650;48.106;-1.696;2022-09-09T05:11:17;15.20;99.90
22968;DHT22;11650;48.106;-1.696;2022-09-09T05:13:44;15.20;99.90
22968;DHT22;11650;48.106;-1.696;2022-09-09T05:16:10;15.10;99.90
22968;DHT22;11650;48.106;-1.696;2022-09-09T05:18:37;15.10;99.90
22968;DHT22;11650;48.106;-1.696;2022-09-09T05:21:03;15.10;99.90
22968;DHT22;11650;48.106;-1.696;2022-09-09T05:23:29;15.10;99.90
22968;DHT22;11650;48.106;-1.696;2022-09-09T05:25:56;15.10;99.90
22968;DHT22;11650;48.106;-1.696;2022-09-09T05:28:23;15.10;99.90
22968;DHT22;11650;48.106;-1.696;2022-09-09T05:31:07;15.10;99.90
22968;DHT22;11650;48.106;-1.696;2022-09-09T05:33:38;15.00;99.90
22968;DHT22;11650;48.106;-1.696;2022-09-09T05:36:09;15.00;99.90
22968;DHT22;11650;48.106;-1.696;2022-09-09T05:38:36;15.00;99.90
22968;DHT22;11650;48.106;-1.696;2022-09-09T05:41:03;15.00;99.90
22968;DHT22;11650;48.106;-1.696;2022-09-09T05:43:29;15.00;99.90
22968;DHT22;11650;48.106;-1.696;2022-09-09T05:48:30;15.00;99.90
22968;DHT22;11650;48.106;-1.696;2022-09-09T05:50:56;15.00;99.90
22968;DHT22;11650;48.106;-1.696;2022-09-09T05:53:22;15.10;99.90
22968;DHT22;11650;48.106;-1.696;2022-09-09T05:55:48;15.10;99.90
22968;DHT22;11650;48.106;-1.696;2022-09-09T05:58:14;15.10;99.90
22968;DHT22;11650;48.106;-1.696;2022-09-09T06:00:40;15.10;99.90
22968;DHT22;11650;48.106;-1.696;2022-09-09T06:03:06;15.10;99.90
22968;DHT22;11650;48.106;-1.696;2022-09-09T06:05:31;15.10;99.90
22968;DHT22;11650;48.106;-1.696;2022-09-09T06:07:59;15.20;99.90
22968;DHT22;11650;48.106;-1.696;2022-09-09T06:10:24;15.20;99.90
22968;DHT22;11650;48.106;-1.696;2022-09-09T06:12:52;15.20;99.90
22968;DHT22;11650;48.106;-1.696;2022-09-09T06:15:18;15.20;99.90
22968;DHT22;11650;48.106;-1.696;2022-09-09T06:17:44;15.30;99.90
22968;DHT22;11650;48.106;-1.696;2022-09-09T06:20:10;15.30;99.90
22968;DHT22;11650;48.106;-1.696;2022-09-09T06:22:39;15.40;99.90
22968;DHT22;11650;48.106;-1.696;2022-09-09T06:25:07;15.40;99.90
22968;DHT22;11650;48.106;-1.696;2022-09-09T06:27:33;15.40;99.90
22968;DHT22;11650;48.106;-1.696;2022-09-09T06:29:58;15.50;99.90
22968;DHT22;11650;48.106;-1.696;2022-09-09T06:32:24;15.50;99.90
22968;DHT22;11650;48.106;-1.696;2022-09-09T06:34:52;15.50;99.90
22968;DHT22;11650;48.106;-1.696;2022-09-09T06:37:17;15.50;99.90
22968;DHT22;11650;48.106;-1.696;2022-09-09T06:39:43;15.50;99.90
22968;DHT22;11650;48.106;-1.696;2022-09-09T06:42:09;15.60;99.90
22968;DHT22;11650;48.106;-1.696;2022-09-09T06:44:34;15.60;99.90
22968;DHT22;11650;48.106;-1.696;2022-09-09T06:47:00;15.70;99.90
22968;DHT22;11650;48.106;-1.696;2022-09-09T06:49:26;15.70;99.90
22968;DHT22;11650;48.106;-1.696;2022-09-09T06:51:51;15.70;99.90
22968;DHT22;11650;48.106;-1.696;2022-09-09T06:54:17;15.80;99.90
22968;DHT22;11650;48.106;-1.696;2022-09-09T06:56:43;15.90;99.90
22968;DHT22;11650;48.106;-1.696;2022-09-09T06:59:11;15.90;99.90
22968;DHT22;11650;48.106;-1.696;2022-09-09T07:01:42;16.00;99.90
22968;DHT22;11650;48.106;-1.696;2022-09-09T07:04:12;16.10;99.90
22968;DHT22;11650;48.106;-1.696;2022-09-09T07:06:41;16.20;99.90
22968;DHT22;11650;48.106;-1.696;2022-09-09T07:09:10;16.30;99.90
22968;DHT22;11650;48.106;-1.696;2022-09-09T07:11:42;16.40;99.90
22968;DHT22;11650;48.106;-1.696;2022-09-09T07:14:08;16.60;99.90
22968;DHT22;11650;48.106;-1.696;2022-09-09T07:16:34;16.70;99.90
22968;DHT22;11650;48.106;-1.696;2022-09-09T07:19:03;16.90;99.90
22968;DHT22;11650;48.106;-1.696;2022-09-09T07:21:30;16.90;99.90
22968;DHT22;11650;48.106;-1.696;2022-09-09T07:23:56;16.90;99.90
22968;DHT22;11650;48.106;-1.696;2022-09-09T07:26:25;17.00;99.90
22968;DHT22;11650;48.106;-1.696;2022-09-09T07:28:51;17.10;99.90
22968;DHT22;11650;48.106;-1.696;2022-09-09T07:31:23;17.10;99.90
22968;DHT22;11650;48.106;-1.696;2022-09-09T07:33:49;17.00;99.90
22968;DHT22;11650;48.106;-1.696;2022-09-09T07:36:35;17.00;99.90
22968;DHT22;11650;48.106;-1.696;2022-09-09T07:39:07;17.10;99.90
22968;DHT22;11650;48.106;-1.696;2022-09-09T07:41:42;17.00;99.90
22968;DHT22;11650;48.106;-1.696;2022-09-09T07:44:11;17.10;99.90
22968;DHT22;11650;48.106;-1.696;2022-09-09T07:46:38;17.00;99.90
22968;DHT22;11650;48.106;-1.696;2022-09-09T07:49:07;17.00;99.90
22968;DHT22;11650;48.106;-1.696;2022-09-09T07:51:36;16.90;99.90
22968;DHT22;11650;48.106;-1.696;2022-09-09T07:54:07;16.90;99.90
22968;DHT22;11650;48.106;-1.696;2022-09-09T07:56:34;17.00;99.90
22968;DHT22;11650;48.106;-1.696;2022-09-09T07:59:01;17.10;99.90
22968;DHT22;11650;48.106;-1.696;2022-09-09T08:01:31;17.20;99.90
22968;DHT22;11650;48.106;-1.696;2022-09-09T08:04:02;17.60;99.90
22968;DHT22;11650;48.106;-1.696;2022-09-09T08:06:31;17.80;99.90
22968;DHT22;11650;48.106;-1.696;2022-09-09T08:08:57;17.80;99.90
22968;DHT22;11650;48.106;-1.696;2022-09-09T08:11:24;17.80;99.90
22968;DHT22;11650;48.106;-1.696;2022-09-09T08:13:51;17.90;99.90
22968;DHT22;11650;48.106;-1.696;2022-09-09T08:16:19;17.90;99.90
22968;DHT22;11650;48.106;-1.696;2022-09-09T08:18:47;17.90;99.90
22968;DHT22;11650;48.106;-1.696;2022-09-09T08:21:19;17.70;99.90
22968;DHT22;11650;48.106;-1.696;2022-09-09T08:23:46;17.70;99.90
22968;DHT22;11650;48.106;-1.696;2022-09-09T08:26:24;17.80;99.90
22968;DHT22;11650;48.106;-1.696;2022-09-09T08:28:52;17.80;99.90
22968;DHT22;11650;48.106;-1.696;2022-09-09T08:31:27;17.90;99.90
22968;DHT22;11650;48.106;-1.696;2022-09-09T08:33:57;18.10;99.90
22968;DHT22;11650;48.106;-1.696;2022-09-09T08:36:26;18.20;99.90
22968;DHT22;11650;48.106;-1.696;2022-09-09T08:38:54;18.20;99.90
22968;DHT22;11650;48.106;-1.696;2022-09-09T08:43:51;18.20;99.90
22968;DHT22;11650;48.106;-1.696;2022-09-09T08:46:38;18.30;99.90
22968;DHT22;11650;48.106;-1.696;2022-09-09T08:52:00;18.40;99.90
22968;DHT22;11650;48.106;-1.696;2022-09-09T08:54:30;18.30;99.90
22968;DHT22;11650;48.106;-1.696;2022-09-09T08:56:58;18.50;99.90
22968;DHT22;11650;48.106;-1.696;2022-09-09T08:59:24;18.60;99.90
22968;DHT22;11650;48.106;-1.696;2022-09-09T09:13:20;19.20;99.90
22968;DHT22;11650;48.106;-1.696;2022-09-09T09:15:52;19.40;99.90
22968;DHT22;11650;48.106;-1.696;2022-09-09T09:18:19;19.50;99.90
22968;DHT22;11650;48.106;-1.696;2022-09-09T09:20:54;19.50;99.90
22968;DHT22;11650;48.106;-1.696;2022-09-09T09:23:25;19.40;99.90
22968;DHT22;11650;48.106;-1.696;2022-09-09T09:25:56;19.40;99.90
22968;DHT22;11650;48.106;-1.696;2022-09-09T09:28:27;19.60;99.90
22968;DHT22;11650;48.106;-1.696;2022-09-09T09:31:09;19.70;99.90
22968;DHT22;11650;48.106;-1.696;2022-09-09T09:36:12;19.30;99.90
22968;DHT22;11650;48.106;-1.696;2022-09-09T09:38:55;19.20;99.90
22968;DHT22;11650;48.106;-1.696;2022-09-09T09:41:41;19.20;99.90
22968;DHT22;11650;48.106;-1.696;2022-09-09T09:44:31;19.20;99.90
22968;DHT22;11650;48.106;-1.696;2022-09-09T09:47:11;19.30;99.90
22968;DHT22;11650;48.106;-1.696;2022-09-09T09:49:38;19.60;99.90
22968;DHT22;11650;48.106;-1.696;2022-09-09T09:52:06;19.50;99.90
22968;DHT22;11650;48.106;-1.696;2022-09-09T09:54:39;19.70;99.90
22968;DHT22;11650;48.106;-1.696;2022-09-09T09:57:16;19.60;99.90
22968;DHT22;11650;48.106;-1.696;2022-09-09T09:59:42;19.50;99.90
22968;DHT22;11650;48.106;-1.696;2022-09-09T10:02:25;19.20;99.90
22968;DHT22;11650;48.106;-1.696;2022-09-09T10:05:06;19.30;99.90
22968;DHT22;11650;48.106;-1.696;2022-09-09T10:07:37;19.20;99.90
22968;DHT22;11650;48.106;-1.696;2022-09-09T10:10:04;19.60;99.90
22968;DHT22;11650;48.106;-1.696;2022-09-09T10:15:33;19.70;99.90
22968;DHT22;11650;48.106;-1.696;2022-09-09T10:32:39;20.90;99.90
22968;DHT22;11650;48.106;-1.696;2022-09-09T10:35:13;21.20;99.90
22968;DHT22;11650;48.106;-1.696;2022-09-09T10:40:37;20.20;99.90
22968;DHT22;11650;48.106;-1.696;2022-09-09T10:46:23;19.40;99.90
22968;DHT22;11650;48.106;-1.696;2022-09-09T11:00:10;21.10;99.90
22968;DHT22;11650;48.106;-1.696;2022-09-09T11:02:41;21.10;99.90
22968;DHT22;11650;48.106;-1.696;2022-09-09T11:05:29;20.90;99.90
22968;DHT22;11650;48.106;-1.696;2022-09-09T11:13:05;21.00;99.90
22968;DHT22;11650;48.106;-1.696;2022-09-09T11:15:44;20.70;99.90
22968;DHT22;11650;48.106;-1.696;2022-09-09T11:18:17;20.60;99.90
22968;DHT22;11650;48.106;-1.696;2022-09-09T11:20:44;20.80;99.90
22968;DHT22;11650;48.106;-1.696;2022-09-09T11:23:16;20.90;99.90
22968;DHT22;11650;48.106;-1.696;2022-09-09T11:25:51;21.10;99.90
22968;DHT22;11650;48.106;-1.696;2022-09-09T11:28:40;21.40;99.90
22968;DHT22;11650;48.106;-1.696;2022-09-09T11:44:41;20.70;99.90
22968;DHT22;11650;48.106;-1.696;2022-09-09T11:47:25;20.60;99.90
22968;DHT22;11650;48.106;-1.696;2022-09-09T11:49:55;20.50;99.90
22968;DHT22;11650;48.106;-1.696;2022-09-09T11:52:35;20.40;99.90
22968;DHT22;11650;48.106;-1.696;2022-09-09T11:55:27;20.50;99.90
22968;DHT22;11650;48.106;-1.696;2022-09-09T11:58:00;20.50;99.90
22968;DHT22;11650;48.106;-1.696;2022-09-09T12:00:36;20.40;99.90
22968;DHT22;11650;48.106;-1.696;2022-09-09T12:03:03;20.20;99.90
22968;DHT22;11650;48.106;-1.696;2022-09-09T12:05:39;20.70;99.90
22968;DHT22;11650;48.106;-1.696;2022-09-09T12:08:07;21.00;99.90
22968;DHT22;11650;48.106;-1.696;2022-09-09T12:10:38;20.90;99.90
22968;DHT22;11650;48.106;-1.696;2022-09-09T12:13:25;20.80;99.90
22968;DHT22;11650;48.106;-1.696;2022-09-09T12:15:52;20.60;99.90
22968;DHT22;11650;48.106;-1.696;2022-09-09T12:18:35;20.40;99.90
22968;DHT22;11650;48.106;-1.696;2022-09-09T12:27:05;21.20;99.90
22968;DHT22;11650;48.106;-1.696;2022-09-09T12:29:54;21.30;99.90
22968;DHT22;11650;48.106;-1.696;2022-09-09T12:32:24;21.60;99.90
22968;DHT22;11650;48.106;-1.696;2022-09-09T12:34:58;21.50;99.90
22968;DHT22;11650;48.106;-1.696;2022-09-09T12:40:06;21.90;99.90
22968;DHT22;11650;48.106;-1.696;2022-09-09T12:42:32;21.80;99.90
22968;DHT22;11650;48.106;-1.696;2022-09-09T12:45:03;22.50;99.90
22968;DHT22;11650;48.106;-1.696;2022-09-09T12:47:46;22.50;99.90
22968;DHT22;11650;48.106;-1.696;2022-09-09T12:50:33;23.20;99.90
22968;DHT22;11650;48.106;-1.696;2022-09-09T12:53:06;23.00;99.90
22968;DHT22;11650;48.106;-1.696;2022-09-09T12:55:37;22.70;99.90
22968;DHT22;11650;48.106;-1.696;2022-09-09T12:58:04;22.80;99.90
22968;DHT22;11650;48.106;-1.696;2022-09-09T13:00:32;23.30;99.90
22968;DHT22;11650;48.106;-1.696;2022-09-09T13:03:13;24.00;99.90
22968;DHT22;11650;48.106;-1.696;2022-09-09T13:05:41;24.60;99.90
22968;DHT22;11650;48.106;-1.696;2022-09-09T13:08:12;24.20;99.90
22968;DHT22;11650;48.106;-1.696;2022-09-09T13:10:50;23.60;99.90
22968;DHT22;11650;48.106;-1.696;2022-09-09T13:13:29;23.00;99.90
22968;DHT22;11650;48.106;-1.696;2022-09-09T13:16:00;23.10;99.90
22968;DHT22;11650;48.106;-1.696;2022-09-09T13:18:31;23.10;99.90
22968;DHT22;11650;48.106;-1.696;2022-09-09T13:20:59;23.00;99.90
22968;DHT22;11650;48.106;-1.696;2022-09-09T13:23:33;22.90;99.90
22968;DHT22;11650;48.106;-1.696;2022-09-09T13:28:30;22.00;99.90
22968;DHT22;11650;48.106;-1.696;2022-09-09T13:31:05;21.80;99.90
22968;DHT22;11650;48.106;-1.696;2022-09-09T13:33:34;21.80;99.90
22968;DHT22;11650;48.106;-1.696;2022-09-09T13:36:08;21.60;99.90
22968;DHT22;11650;48.106;-1.696;2022-09-09T13:38:56;21.20;99.90
22968;DHT22;11650;48.106;-1.696;2022-09-09T13:41:24;20.40;99.90
22968;DHT22;11650;48.106;-1.696;2022-09-09T13:43:51;19.80;99.90
22968;DHT22;11650;48.106;-1.696;2022-09-09T13:46:37;19.20;99.90
22968;DHT22;11650;48.106;-1.696;2022-09-09T13:51:43;18.50;99.90
22968;DHT22;11650;48.106;-1.696;2022-09-09T13:54:13;18.40;99.90
22968;DHT22;11650;48.106;-1.696;2022-09-09T13:56:40;18.40;99.90
22968;DHT22;11650;48.106;-1.696;2022-09-09T13:59:13;18.10;99.90
22968;DHT22;11650;48.106;-1.696;2022-09-09T14:01:40;17.90;99.90
22968;DHT22;11650;48.106;-1.696;2022-09-09T14:04:06;18.00;99.90
22968;DHT22;11650;48.106;-1.696;2022-09-09T14:06:33;18.10;99.90
22968;DHT22;11650;48.106;-1.696;2022-09-09T14:09:00;18.10;99.90
22968;DHT22;11650;48.106;-1.696;2022-09-09T14:11:26;18.20;99.90
22968;DHT22;11650;48.106;-1.696;2022-09-09T14:13:51;18.70;99.90
22968;DHT22;11650;48.106;-1.696;2022-09-09T14:16:17;19.50;99.90
22968;DHT22;11650;48.106;-1.696;2022-09-09T14:18:45;19.90;99.90
22968;DHT22;11650;48.106;-1.696;2022-09-09T14:21:11;19.70;99.90
22968;DHT22;11650;48.106;-1.696;2022-09-09T14:23:38;19.80;99.90
22968;DHT22;11650;48.106;-1.696;2022-09-09T14:26:05;21.60;99.90
22968;DHT22;11650;48.106;-1.696;2022-09-09T14:28:31;21.10;99.90
22968;DHT22;11650;48.106;-1.696;2022-09-09T14:31:00;20.30;99.90
22968;DHT22;11650;48.106;-1.696;2022-09-09T14:33:26;19.80;99.90
22968;DHT22;11650;48.106;-1.696;2022-09-09T14:35:58;19.70;99.90
22968;DHT22;11650;48.106;-1.696;2022-09-09T14:38:25;19.30;99.90
22968;DHT22;11650;48.106;-1.696;2022-09-09T14:40:51;19.30;99.90
22968;DHT22;11650;48.106;-1.696;2022-09-09T14:43:16;19.10;99.90
22968;DHT22;11650;48.106;-1.696;2022-09-09T14:45:42;19.00;99.90
22968;DHT22;11650;48.106;-1.696;2022-09-09T14:48:08;18.70;99.90
22968;DHT22;11650;48.106;-1.696;2022-09-09T14:50:34;18.60;99.90
22968;DHT22;11650;48.106;-1.696;2022-09-09T14:53:02;18.90;99.90
22968;DHT22;11650;48.106;-1.696;2022-09-09T14:55:27;19.00;99.90
22968;DHT22;11650;48.106;-1.696;2022-09-09T14:57:54;19.10;99.90
22968;DHT22;11650;48.106;-1.696;2022-09-09T15:00:20;19.10;99.90
22968;DHT22;11650;48.106;-1.696;2022-09-09T15:02:45;19.20;99.90
22968;DHT22;11650;48.106;-1.696;2022-09-09T15:05:11;19.80;99.90
22968;DHT22;11650;48.106;-1.696;2022-09-09T15:07:37;20.10;99.90
22968;DHT22;11650;48.106;-1.696;2022-09-09T15:10:03;20.20;99.90
22968;DHT22;11650;48.106;-1.696;2022-09-09T15:12:29;21.30;99.90
22968;DHT22;11650;48.106;-1.696;2022-09-09T15:14:55;22.20;99.90
22968;DHT22;11650;48.106;-1.696;2022-09-09T15:17:21;21.40;99.90
22968;DHT22;11650;48.106;-1.696;2022-09-09T15:19:47;21.20;99.90
22968;DHT22;11650;48.106;-1.696;2022-09-09T15:22:12;21.00;99.90
22968;DHT22;11650;48.106;-1.696;2022-09-09T15:24:38;20.90;99.90
22968;DHT22;11650;48.106;-1.696;2022-09-09T15:27:04;20.90;99.90
22968;DHT22;11650;48.106;-1.696;2022-09-09T15:29:29;20.70;99.90
22968;DHT22;11650;48.106;-1.696;2022-09-09T15:31:56;20.80;99.90
22968;DHT22;11650;48.106;-1.696;2022-09-09T15:34:22;20.80;99.90
22968;DHT22;11650;48.106;-1.696;2022-09-09T15:36:48;20.70;99.90
22968;DHT22;11650;48.106;-1.696;2022-09-09T15:39:15;20.90;99.90
22968;DHT22;11650;48.106;-1.696;2022-09-09T15:41:45;21.00;99.90
22968;DHT22;11650;48.106;-1.696;2022-09-09T15:44:12;20.90;99.90
22968;DHT22;11650;48.106;-1.696;2022-09-09T15:46:43;21.00;99.90
22968;DHT22;11650;48.106;-1.696;2022-09-09T15:49:11;20.90;99.90
22968;DHT22;11650;48.106;-1.696;2022-09-09T15:51:40;21.70;99.90
22968;DHT22;11650;48.106;-1.696;2022-09-09T15:54:06;21.90;99.90
22968;DHT22;11650;48.106;-1.696;2022-09-09T15:56:32;21.80;99.90
22968;DHT22;11650;48.106;-1.696;2022-09-09T15:58:59;21.80;99.90
22968;DHT22;11650;48.106;-1.696;2022-09-09T16:01:26;21.90;99.90
22968;DHT22;11650;48.106;-1.696;2022-09-09T16:03:52;22.70;99.90
22968;DHT22;11650;48.106;-1.696;2022-09-09T16:06:20;22.90;99.90
22968;DHT22;11650;48.106;-1.696;2022-09-09T16:08:48;22.30;99.90
22968;DHT22;11650;48.106;-1.696;2022-09-09T16:11:22;24.70;99.90
22968;DHT22;11650;48.106;-1.696;2022-09-09T16:13:50;25.30;99.90
22968;DHT22;11650;48.106;-1.696;2022-09-09T16:16:17;25.80;99.90
22968;DHT22;11650;48.106;-1.696;2022-09-09T16:18:44;23.80;99.90
22968;DHT22;11650;48.106;-1.696;2022-09-09T16:21:46;23.00;99.90
22968;DHT22;11650;48.106;-1.696;2022-09-09T16:24:05;22.60;99.90
22968;DHT22;11650;48.106;-1.696;2022-09-09T16:26:31;22.00;99.90
22968;DHT22;11650;48.106;-1.696;2022-09-09T16:28:58;22.10;99.90
22968;DHT22;11650;48.106;-1.696;2022-09-09T16:31:25;21.80;99.90
22968;DHT22;11650;48.106;-1.696;2022-09-09T16:33:50;21.40;99.90
22968;DHT22;11650;48.106;-1.696;2022-09-09T16:36:17;21.30;99.90
22968;DHT22;11650;48.106;-1.696;2022-09-09T16:38:43;21.00;99.90
22968;DHT22;11650;48.106;-1.696;2022-09-09T16:41:09;20.90;99.90
22968;DHT22;11650;48.106;-1.696;2022-09-09T16:43:35;20.90;99.90
22968;DHT22;11650;48.106;-1.696;2022-09-09T16:46:22;20.90;99.90
22968;DHT22;11650;48.106;-1.696;2022-09-09T16:48:47;21.00;99.90
22968;DHT22;11650;48.106;-1.696;2022-09-09T16:53:41;20.80;99.90
22968;DHT22;11650;48.106;-1.696;2022-09-09T16:56:09;20.70;99.90
22968;DHT22;11650;48.106;-1.696;2022-09-09T16:58:35;20.70;99.90
22968;DHT22;11650;48.106;-1.696;2022-09-09T17:01:01;20.60;99.90
22968;DHT22;11650;48.106;-1.696;2022-09-09T17:03:28;20.60;99.90
22968;DHT22;11650;48.106;-1.696;2022-09-09T17:05:54;20.50;99.90
22968;DHT22;11650;48.106;-1.696;2022-09-09T17:08:20;20.50;99.90
22968;DHT22;11650;48.106;-1.696;2022-09-09T17:10:45;20.50;99.90
22968;DHT22;11650;48.106;-1.696;2022-09-09T17:13:12;20.40;99.90
22968;DHT22;11650;48.106;-1.696;2022-09-09T17:15:42;20.30;99.90
22968;DHT22;11650;48.106;-1.696;2022-09-09T17:18:09;20.20;99.90
22968;DHT22;11650;48.106;-1.696;2022-09-09T17:20:41;20.10;99.90
22968;DHT22;11650;48.106;-1.696;2022-09-09T17:23:08;20.00;99.90
22968;DHT22;11650;48.106;-1.696;2022-09-09T17:25:35;19.80;99.90
22968;DHT22;11650;48.106;-1.696;2022-09-09T17:28:01;19.50;99.90
22968;DHT22;11650;48.106;-1.696;2022-09-09T17:30:33;19.30;99.90
22968;DHT22;11650;48.106;-1.696;2022-09-09T17:32:59;19.10;99.90
22968;DHT22;11650;48.106;-1.696;2022-09-09T17:35:25;19.00;99.90
22968;DHT22;11650;48.106;-1.696;2022-09-09T17:37:53;18.90;99.90
22968;DHT22;11650;48.106;-1.696;2022-09-09T17:40:20;18.70;99.90
22968;DHT22;11650;48.106;-1.696;2022-09-09T17:42:45;18.60;99.90
22968;DHT22;11650;48.106;-1.696;2022-09-09T17:45:12;18.60;99.90
22968;DHT22;11650;48.106;-1.696;2022-09-09T17:47:38;18.50;99.90
22968;DHT22;11650;48.106;-1.696;2022-09-09T17:50:05;18.50;99.90
22968;DHT22;11650;48.106;-1.696;2022-09-09T17:52:32;18.50;99.90
22968;DHT22;11650;48.106;-1.696;2022-09-09T17:54:58;18.50;99.90